createdAt,value
2023-01-13T00:01:33.588Z,90.22
2023-01-13T00:04:02.057Z,90.00
2023-01-13T00:06:30.597Z,90.12
2023-01-13T00:08:59.161Z,90.18
2023-01-13T00:11:28.147Z,90.21
2023-01-13T00:13:56.596Z,90.15
2023-01-13T00:16:25.144Z,90.18
2023-01-13T00:18:53.676Z,90.05
2023-01-13T00:21:24.666Z,90.01
2023-01-13T00:23:55.529Z,89.97
2023-01-13T00:26:30.959Z,90.06
2023-01-13T00:29:00.407Z,90.24
2023-01-13T00:31:30.251Z,89.91
2023-01-13T00:34:00.770Z,90.02
2023-01-13T00:36:31.098Z,90.24
2023-01-13T00:38:59.955Z,90.27
2023-01-13T00:41:29.528Z,90.39
2023-01-13T00:43:58.109Z,90.49
2023-01-13T00:46:26.554Z,90.55
2023-01-13T00:48:55.105Z,90.48
2023-01-13T00:51:23.674Z,90.66
2023-01-13T00:53:52.773Z,90.80
2023-01-13T00:56:39.298Z,90.84
2023-01-13T00:59:12.782Z,90.65
2023-01-13T01:01:42.342Z,90.80
2023-01-13T01:04:11.708Z,90.85
2023-01-13T01:06:40.437Z,90.95
2023-01-13T01:09:13.319Z,90.91
2023-01-13T01:11:42.767Z,90.99
2023-01-13T01:14:13.667Z,91.13
2023-01-13T01:16:42.599Z,91.08
2023-01-13T01:19:11.071Z,91.04
2023-01-13T01:21:39.718Z,91.16
2023-01-13T01:24:08.647Z,91.40
2023-01-13T01:26:37.145Z,91.37
2023-01-13T01:29:05.637Z,91.54
2023-01-13T01:31:34.541Z,91.50
2023-01-13T01:34:03.142Z,91.61
2023-01-13T01:36:31.889Z,92.03
2023-01-13T01:39:01.446Z,92.27
2023-01-13T01:41:33.585Z,92.64
2023-01-13T01:44:09.077Z,93.41
2023-01-13T01:46:43.763Z,93.94
2023-01-13T01:49:32.925Z,94.09
2023-01-13T01:52:27.902Z,94.15
2023-01-13T01:55:10.877Z,94.07
2023-01-13T01:57:43.122Z,93.91
2023-01-13T02:00:12.555Z,93.79
2023-01-13T02:02:44.113Z,93.63
2023-01-13T02:05:13.330Z,93.71
2023-01-13T02:07:44.894Z,93.67
2023-01-13T02:10:21.405Z,93.58
2023-01-13T02:12:51.131Z,93.62
2023-01-13T02:16:03.329Z,93.52
2023-01-13T02:19:00.131Z,93.52
2023-01-13T02:21:43.323Z,93.60
2023-01-13T02:24:45.392Z,93.66
2023-01-13T02:27:51.615Z,93.74
2023-01-13T02:30:59.614Z,93.79
2023-01-13T02:33:46.534Z,93.98
2023-01-13T02:36:21.703Z,94.27
2023-01-13T02:39:09.028Z,94.50
2023-01-13T02:41:59.506Z,94.83
2023-01-13T02:44:52.408Z,94.97
2023-01-13T02:47:29.405Z,95.30
2023-01-13T02:50:02.623Z,95.56
2023-01-13T02:53:03.806Z,95.57
2023-01-13T02:55:40.908Z,95.61
2023-01-13T02:58:14.286Z,95.75
2023-01-13T03:00:44.170Z,95.74
2023-01-13T03:03:12.783Z,95.74
2023-01-13T03:05:44.670Z,95.84
2023-01-13T03:08:31.379Z,95.82
2023-01-13T03:11:12.173Z,95.93
2023-01-13T03:13:41.933Z,96.05
2023-01-13T03:16:41.166Z,96.05
2023-01-13T03:19:38.120Z,96.14
2023-01-13T03:22:21.135Z,96.21
2023-01-13T03:25:11.016Z,96.32
2023-01-13T03:28:07.659Z,96.38
2023-01-13T03:30:53.809Z,96.43
2023-01-13T03:33:25.722Z,96.54
2023-01-13T03:36:00.217Z,96.78
2023-01-13T03:38:34.060Z,97.12
2023-01-13T03:41:41.397Z,98.50
2023-01-13T03:44:23.261Z,99.14
2023-01-13T03:47:13.298Z,100.00
2023-01-13T03:50:06.523Z,100.00
2023-01-13T03:52:44.848Z,100.00
2023-01-13T03:55:30.780Z,100.00
2023-01-13T03:58:10.728Z,100.00
2023-01-13T04:00:52.432Z,100.00
2023-01-13T04:03:29.809Z,100.00
2023-01-13T04:06:12.380Z,100.00
2023-01-13T04:08:53.147Z,100.00
2023-01-13T04:11:34.632Z,100.00
2023-01-13T04:14:04.983Z,100.00
2023-01-13T04:16:33.650Z,100.00
2023-01-13T04:19:02.939Z,100.00
2023-01-13T04:21:31.529Z,100.00
2023-01-13T04:23:59.974Z,100.00
2023-01-13T04:26:28.545Z,100.00
2023-01-13T04:28:56.938Z,100.00
2023-01-13T04:31:25.510Z,99.96
2023-01-13T04:33:54.305Z,99.87
2023-01-13T04:36:27.889Z,99.83
2023-01-13T04:38:56.487Z,99.75
2023-01-13T04:41:25.298Z,99.96
2023-01-13T04:43:53.684Z,100.00
2023-01-13T04:46:22.200Z,100.00
2023-01-13T04:48:50.633Z,100.00
2023-01-13T04:51:19.275Z,100.00
2023-01-13T04:53:47.613Z,100.00
2023-01-13T04:56:16.174Z,100.00
2023-01-13T04:58:44.869Z,100.00
2023-01-13T05:01:13.433Z,100.00
2023-01-13T05:03:41.865Z,100.00
2023-01-13T05:06:10.839Z,100.00
2023-01-13T05:08:39.310Z,100.00
2023-01-13T05:11:27.660Z,100.00
2023-01-13T05:14:14.629Z,100.00
2023-01-13T05:17:01.347Z,100.00
2023-01-13T05:19:32.576Z,100.00
2023-01-13T05:22:21.099Z,100.00
2023-01-13T05:25:10.047Z,100.00
2023-01-13T05:27:38.355Z,100.00
2023-01-13T05:30:07.821Z,100.00
2023-01-13T05:32:36.343Z,100.00
2023-01-13T05:35:05.464Z,100.00
2023-01-13T05:37:34.008Z,100.00
2023-01-13T05:40:21.939Z,100.00
2023-01-13T05:43:20.511Z,100.00
2023-01-13T05:46:00.458Z,100.00
2023-01-13T05:48:41.039Z,100.00
2023-01-13T05:51:11.698Z,100.00
2023-01-13T05:53:43.521Z,100.00
2023-01-13T05:56:12.193Z,100.00
2023-01-13T05:58:40.663Z,100.00
2023-01-13T06:01:10.480Z,100.00
2023-01-13T06:03:46.162Z,100.00
2023-01-13T06:06:16.232Z,100.00
2023-01-13T06:08:44.812Z,100.00
2023-01-13T06:11:13.489Z,100.00
2023-01-13T06:13:44.345Z,100.00
2023-01-13T06:16:13.568Z,100.00
2023-01-13T06:18:42.321Z,100.00
2023-01-13T06:21:14.279Z,100.00
2023-01-13T06:23:43.502Z,100.00
2023-01-13T06:26:18.396Z,100.00
2023-01-13T06:28:47.737Z,100.00
2023-01-13T06:31:17.570Z,100.00
2023-01-13T06:33:53.497Z,100.00
2023-01-13T06:36:45.641Z,100.00
2023-01-13T06:39:20.805Z,100.00
2023-01-13T06:42:12.085Z,100.00
2023-01-13T06:44:40.972Z,100.00
2023-01-13T06:47:12.218Z,100.00
2023-01-13T06:49:41.358Z,100.00
2023-01-13T06:52:10.303Z,100.00
2023-01-13T06:54:40.804Z,100.00
2023-01-13T06:57:09.418Z,100.00
2023-01-13T06:59:37.914Z,100.00
2023-01-13T07:02:07.606Z,100.00
2023-01-13T07:04:36.811Z,100.00
2023-01-13T07:07:05.905Z,100.00
2023-01-13T07:09:35.426Z,100.00
2023-01-13T07:12:07.500Z,100.00
2023-01-13T07:14:57.045Z,100.00
2023-01-13T07:17:30.051Z,100.00
2023-01-13T07:20:00.174Z,100.00
2023-01-13T07:22:29.030Z,100.00
2023-01-13T07:24:59.239Z,100.00
2023-01-13T07:27:29.692Z,100.00
2023-01-13T07:29:59.329Z,100.00
2023-01-13T07:32:28.533Z,100.00
2023-01-13T07:35:05.700Z,100.00
2023-01-13T07:37:36.618Z,100.00
2023-01-13T07:40:06.292Z,100.00
2023-01-13T07:42:53.549Z,100.00
2023-01-13T07:45:21.973Z,100.00
2023-01-13T07:47:54.699Z,100.00
2023-01-13T07:50:24.015Z,100.00
2023-01-13T07:52:52.475Z,100.00
2023-01-13T07:55:21.033Z,100.00
2023-01-13T07:57:49.675Z,100.00
2023-01-13T08:00:18.742Z,100.00
2023-01-13T08:02:47.257Z,100.00
2023-01-13T08:05:16.925Z,100.00
2023-01-13T08:07:45.260Z,100.00
2023-01-13T08:10:14.098Z,100.00
2023-01-13T08:13:00.938Z,100.00
2023-01-13T08:15:30.139Z,100.00
2023-01-13T08:17:59.733Z,100.00
2023-01-13T08:20:28.541Z,100.00
2023-01-13T08:23:00.889Z,100.00
2023-01-13T08:25:30.498Z,100.00
2023-01-13T08:28:00.551Z,100.00
2023-01-13T08:30:29.449Z,100.00
2023-01-13T08:32:58.485Z,100.00
2023-01-13T08:35:27.101Z,100.00
2023-01-13T08:37:55.537Z,100.00
2023-01-13T08:40:24.081Z,100.00
2023-01-13T08:42:54.208Z,100.00
2023-01-13T08:45:22.884Z,100.00
2023-01-13T08:47:51.721Z,100.00
2023-01-13T08:50:20.646Z,100.00
2023-01-13T08:52:49.083Z,100.00
2023-01-13T08:55:17.541Z,100.00
2023-01-13T08:57:46.518Z,100.00
2023-01-13T09:00:17.422Z,100.00
2023-01-13T09:02:46.025Z,100.00
2023-01-13T09:05:17.632Z,100.00
2023-01-13T09:07:46.153Z,100.00
2023-01-13T09:10:14.737Z,100.00
2023-01-13T09:13:01.842Z,100.00
2023-01-13T09:15:30.535Z,100.00
2023-01-13T09:17:59.059Z,100.00
2023-01-13T09:20:28.245Z,100.00
2023-01-13T09:22:56.670Z,100.00
2023-01-13T09:25:25.179Z,100.00
2023-01-13T09:27:53.671Z,100.00
2023-01-13T09:30:22.325Z,100.00
2023-01-13T09:33:11.101Z,100.00
2023-01-13T09:35:39.560Z,100.00
2023-01-13T09:38:08.312Z,100.00
2023-01-13T09:40:40.559Z,100.00
2023-01-13T09:43:38.831Z,100.00
2023-01-13T09:46:49.942Z,100.00
2023-01-13T09:49:23.202Z,99.80
2023-01-13T09:51:54.411Z,99.10
2023-01-13T09:54:32.696Z,98.83
2023-01-13T09:57:01.703Z,99.47
2023-01-13T09:59:36.662Z,98.46
2023-01-13T10:02:20.531Z,97.72
2023-01-13T10:05:28.760Z,97.23
2023-01-13T10:08:12.922Z,97.46
2023-01-13T10:10:49.527Z,97.36
2023-01-13T10:13:20.558Z,97.25
2023-01-13T10:16:04.497Z,97.17
2023-01-13T10:19:05.887Z,96.57
2023-01-13T10:22:11.727Z,96.65
2023-01-13T10:24:43.147Z,95.81
2023-01-13T10:27:23.500Z,95.96
2023-01-13T10:29:52.063Z,96.28
2023-01-13T10:32:21.318Z,95.15
2023-01-13T10:34:52.642Z,95.35
2023-01-13T10:37:24.923Z,95.82
2023-01-13T10:40:02.532Z,95.29
2023-01-13T10:42:32.066Z,95.28
2023-01-13T10:45:01.550Z,95.31
2023-01-13T10:47:33.363Z,95.05
2023-01-13T10:50:06.728Z,95.43
2023-01-13T10:52:40.212Z,95.51
2023-01-13T10:55:38.700Z,94.64
2023-01-13T10:58:17.678Z,94.35
2023-01-13T11:00:46.951Z,94.39
2023-01-13T11:03:20.082Z,94.11
2023-01-13T11:05:57.294Z,93.98
2023-01-13T11:08:29.542Z,94.17
2023-01-13T11:11:00.012Z,94.09
2023-01-13T11:14:04.105Z,93.93
2023-01-13T11:16:34.103Z,93.87
2023-01-13T11:19:13.204Z,94.10
2023-01-13T11:21:56.644Z,93.23
2023-01-13T11:24:45.434Z,93.38
2023-01-13T11:27:24.779Z,93.32
2023-01-13T11:30:05.469Z,92.39
2023-01-13T11:32:44.940Z,92.12
2023-01-13T11:35:58.989Z,91.78
2023-01-13T11:38:40.891Z,92.09
2023-01-13T11:41:23.537Z,92.24
2023-01-13T11:43:55.207Z,91.84
2023-01-13T11:46:28.180Z,92.13
2023-01-13T11:48:57.992Z,91.68
2023-01-13T11:51:37.885Z,91.88
2023-01-13T11:54:48.859Z,91.89
2023-01-13T11:57:33.239Z,92.13
2023-01-13T12:00:19.794Z,91.52
2023-01-13T12:03:32.037Z,91.32
2023-01-13T12:06:13.457Z,91.48
2023-01-13T12:09:05.240Z,91.60
2023-01-13T12:12:20.594Z,91.34
2023-01-13T12:15:20.445Z,90.98
2023-01-13T12:17:54.188Z,91.31
2023-01-13T12:20:26.063Z,91.30
2023-01-13T12:23:03.579Z,91.62
2023-01-13T12:25:44.171Z,91.21
2023-01-13T12:33:41.903Z,90.53
2023-01-13T16:38:46.565Z,90.43
2023-01-13T21:08:11.429Z,96.62
2023-01-13T21:54:19.163Z,98.21
